Terminal Aerodrome Forecast
Issued by NWS

Home | Current Version | Previous Version | Text Only | Print | Product List | Glossary On
Versions: 1 2 3 4 5 6 7 8 9 10 11 12 13 14 15 16 17 18 19 20 21 22 23 24 25 26 27
000
FTUS43 KLOT 212249 AAD
TAFMDW
TAF AMD
KMDW 212249Z 2123/2224 09004KT 1SM -DZ BR OVC004
     FM220000 09004KT 3/4SM -DZ BR OVC003
      TEMPO 2200/2202 1/2SM FG
     FM220200 10004KT 1/2SM FG OVC003
      TEMPO 2202/2206 1/4SM FG OVC002
     FM220700 12007KT 1SM SHRA BR OVC004 PROB30 2209/2215 -TSRA BR
      OVC003CB
     FM221900 17012G18KT 2SM -SHRA BR OVC006=

USA.gov is the U.S. government's official web portal to all federal, state and local government web resources and services.